sensor_id;sensor_type;location;lat;lon;timestamp;temperature;humidity
5792;DHT22;2922;53.482;10.006;2023-08-01T00:02:23;16.70;99.90
5792;DHT22;2922;53.482;10.006;2023-08-01T00:04:49;16.70;99.90
5792;DHT22;2922;53.482;10.006;2023-08-01T00:07:14;16.60;99.90
5792;DHT22;2922;53.482;10.006;2023-08-01T00:09:40;16.70;99.90
5792;DHT22;2922;53.482;10.006;2023-08-01T00:12:06;16.60;99.90
5792;DHT22;2922;53.482;10.006;2023-08-01T00:14:31;16.60;99.90
5792;DHT22;2922;53.482;10.006;2023-08-01T00:16:58;16.60;99.90
5792;DHT22;2922;53.482;10.006;2023-08-01T00:19:23;16.60;99.90
5792;DHT22;2922;53.482;10.006;2023-08-01T00:21:49;16.70;99.90
5792;DHT22;2922;53.482;10.006;2023-08-01T00:24:14;16.70;99.90
5792;DHT22;2922;53.482;10.006;2023-08-01T00:26:40;16.70;99.90
5792;DHT22;2922;53.482;10.006;2023-08-01T00:29:05;16.70;99.90
5792;DHT22;2922;53.482;10.006;2023-08-01T00:31:31;16.70;99.90
5792;DHT22;2922;53.482;10.006;2023-08-01T00:33:56;16.70;99.90
5792;DHT22;2922;53.482;10.006;2023-08-01T00:36:22;16.70;99.90
5792;DHT22;2922;53.482;10.006;2023-08-01T00:38:48;16.70;99.90
5792;DHT22;2922;53.482;10.006;2023-08-01T00:41:14;16.70;99.90
5792;DHT22;2922;53.482;10.006;2023-08-01T00:43:40;16.70;99.90
5792;DHT22;2922;53.482;10.006;2023-08-01T00:46:06;16.70;99.90
5792;DHT22;2922;53.482;10.006;2023-08-01T00:48:33;16.70;99.90
5792;DHT22;2922;53.482;10.006;2023-08-01T00:51:02;16.80;99.90
5792;DHT22;2922;53.482;10.006;2023-08-01T00:53:29;16.70;99.90
5792;DHT22;2922;53.482;10.006;2023-08-01T00:55:55;16.80;99.90
5792;DHT22;2922;53.482;10.006;2023-08-01T00:58:21;16.80;99.90
5792;DHT22;2922;53.482;10.006;2023-08-01T01:00:47;16.70;99.90
5792;DHT22;2922;53.482;10.006;2023-08-01T01:03:14;16.70;99.90
5792;DHT22;2922;53.482;10.006;2023-08-01T01:05:44;16.80;99.90
5792;DHT22;2922;53.482;10.006;2023-08-01T01:08:12;16.70;99.90
5792;DHT22;2922;53.482;10.006;2023-08-01T01:10:37;16.60;99.90
5792;DHT22;2922;53.482;10.006;2023-08-01T01:13:03;16.70;99.90
5792;DHT22;2922;53.482;10.006;2023-08-01T01:15:28;16.70;99.90
5792;DHT22;2922;53.482;10.006;2023-08-01T01:17:54;16.70;99.90
5792;DHT22;2922;53.482;10.006;2023-08-01T01:20:25;16.70;99.90
5792;DHT22;2922;53.482;10.006;2023-08-01T01:22:54;16.70;99.90
5792;DHT22;2922;53.482;10.006;2023-08-01T01:25:21;16.60;99.90
5792;DHT22;2922;53.482;10.006;2023-08-01T01:27:49;16.60;99.90
5792;DHT22;2922;53.482;10.006;2023-08-01T01:30:17;16.60;99.90
5792;DHT22;2922;53.482;10.006;2023-08-01T01:32:43;16.60;99.90
5792;DHT22;2922;53.482;10.006;2023-08-01T01:35:10;16.60;99.90
5792;DHT22;2922;53.482;10.006;2023-08-01T01:37:36;16.60;99.90
5792;DHT22;2922;53.482;10.006;2023-08-01T01:40:02;16.60;99.90
5792;DHT22;2922;53.482;10.006;2023-08-01T01:42:28;16.60;99.90
5792;DHT22;2922;53.482;10.006;2023-08-01T01:44:53;16.70;99.90
5792;DHT22;2922;53.482;10.006;2023-08-01T01:47:19;16.60;99.90
5792;DHT22;2922;53.482;10.006;2023-08-01T01:49:45;16.70;99.90
5792;DHT22;2922;53.482;10.006;2023-08-01T01:52:10;16.70;99.90
5792;DHT22;2922;53.482;10.006;2023-08-01T01:54:36;16.60;99.90
5792;DHT22;2922;53.482;10.006;2023-08-01T01:57:01;16.60;99.90
5792;DHT22;2922;53.482;10.006;2023-08-01T01:59:27;16.60;99.90
5792;DHT22;2922;53.482;10.006;2023-08-01T02:01:53;16.60;99.90
5792;DHT22;2922;53.482;10.006;2023-08-01T02:04:18;16.60;99.90
5792;DHT22;2922;53.482;10.006;2023-08-01T02:06:44;16.60;99.90
5792;DHT22;2922;53.482;10.006;2023-08-01T02:09:10;16.60;99.90
5792;DHT22;2922;53.482;10.006;2023-08-01T02:11:35;16.60;99.90
5792;DHT22;2922;53.482;10.006;2023-08-01T02:14:01;16.60;99.90
5792;DHT22;2922;53.482;10.006;2023-08-01T02:16:28;16.70;99.90
5792;DHT22;2922;53.482;10.006;2023-08-01T02:18:54;16.60;99.90
5792;DHT22;2922;53.482;10.006;2023-08-01T02:21:19;16.60;99.90
5792;DHT22;2922;53.482;10.006;2023-08-01T02:23:45;16.60;99.90
5792;DHT22;2922;53.482;10.006;2023-08-01T02:26:10;16.70;99.90
5792;DHT22;2922;53.482;10.006;2023-08-01T02:28:36;16.60;99.90
5792;DHT22;2922;53.482;10.006;2023-08-01T02:31:01;16.60;99.90
5792;DHT22;2922;53.482;10.006;2023-08-01T02:33:27;16.60;99.90
5792;DHT22;2922;53.482;10.006;2023-08-01T02:35:53;16.60;99.90
5792;DHT22;2922;53.482;10.006;2023-08-01T02:38:18;16.60;99.90
5792;DHT22;2922;53.482;10.006;2023-08-01T02:40:44;16.60;99.90
5792;DHT22;2922;53.482;10.006;2023-08-01T02:43:09;16.60;99.90
5792;DHT22;2922;53.482;10.006;2023-08-01T02:45:35;16.60;99.90
5792;DHT22;2922;53.482;10.006;2023-08-01T02:48:00;16.60;99.90
5792;DHT22;2922;53.482;10.006;2023-08-01T02:50:26;16.70;99.90
5792;DHT22;2922;53.482;10.006;2023-08-01T02:52:51;16.60;99.90
5792;DHT22;2922;53.482;10.006;2023-08-01T02:55:17;16.50;99.90
5792;DHT22;2922;53.482;10.006;2023-08-01T02:57:43;16.60;99.90
5792;DHT22;2922;53.482;10.006;2023-08-01T03:00:09;16.60;99.90
5792;DHT22;2922;53.482;10.006;2023-08-01T03:02:37;16.60;99.90
5792;DHT22;2922;53.482;10.006;2023-08-01T03:05:05;16.60;99.90
5792;DHT22;2922;53.482;10.006;2023-08-01T03:07:31;16.60;99.90
5792;DHT22;2922;53.482;10.006;2023-08-01T03:09:56;16.60;99.90
5792;DHT22;2922;53.482;10.006;2023-08-01T03:12:22;16.60;99.90
5792;DHT22;2922;53.482;10.006;2023-08-01T03:14:47;16.60;99.90
5792;DHT22;2922;53.482;10.006;2023-08-01T03:17:13;16.60;99.90
5792;DHT22;2922;53.482;10.006;2023-08-01T03:19:38;16.50;99.90
5792;DHT22;2922;53.482;10.006;2023-08-01T03:22:04;16.50;99.90
5792;DHT22;2922;53.482;10.006;2023-08-01T03:24:30;16.50;99.90
5792;DHT22;2922;53.482;10.006;2023-08-01T03:26:55;16.50;99.90
5792;DHT22;2922;53.482;10.006;2023-08-01T03:29:21;16.60;99.90
5792;DHT22;2922;53.482;10.006;2023-08-01T03:31:47;16.60;99.90
5792;DHT22;2922;53.482;10.006;2023-08-01T03:34:12;16.60;99.90
5792;DHT22;2922;53.482;10.006;2023-08-01T03:36:38;16.60;99.90
5792;DHT22;2922;53.482;10.006;2023-08-01T03:39:03;16.60;99.90
5792;DHT22;2922;53.482;10.006;2023-08-01T03:41:29;16.60;99.90
5792;DHT22;2922;53.482;10.006;2023-08-01T03:43:55;16.60;99.90
5792;DHT22;2922;53.482;10.006;2023-08-01T03:46:20;16.60;99.90
5792;DHT22;2922;53.482;10.006;2023-08-01T03:48:46;16.60;99.90
5792;DHT22;2922;53.482;10.006;2023-08-01T03:51:11;16.60;99.90
5792;DHT22;2922;53.482;10.006;2023-08-01T03:53:40;16.60;99.90
5792;DHT22;2922;53.482;10.006;2023-08-01T03:56:07;16.60;99.90
5792;DHT22;2922;53.482;10.006;2023-08-01T03:58:33;16.60;99.90
5792;DHT22;2922;53.482;10.006;2023-08-01T04:00:58;16.60;99.90
5792;DHT22;2922;53.482;10.006;2023-08-01T04:03:24;16.60;99.90
5792;DHT22;2922;53.482;10.006;2023-08-01T04:05:49;16.70;99.90
5792;DHT22;2922;53.482;10.006;2023-08-01T04:08:15;16.60;99.90
5792;DHT22;2922;53.482;10.006;2023-08-01T04:10:40;16.70;99.90
5792;DHT22;2922;53.482;10.006;2023-08-01T04:13:08;16.60;99.90
5792;DHT22;2922;53.482;10.006;2023-08-01T04:15:34;16.60;99.90
5792;DHT22;2922;53.482;10.006;2023-08-01T04:17:59;16.50;99.90
5792;DHT22;2922;53.482;10.006;2023-08-01T04:20:25;16.60;99.90
5792;DHT22;2922;53.482;10.006;2023-08-01T04:22:51;16.60;99.90
5792;DHT22;2922;53.482;10.006;2023-08-01T04:25:16;16.60;99.90
5792;DHT22;2922;53.482;10.006;2023-08-01T04:27:42;16.50;99.90
5792;DHT22;2922;53.482;10.006;2023-08-01T04:30:07;16.60;99.90
5792;DHT22;2922;53.482;10.006;2023-08-01T04:32:33;16.50;99.90
5792;DHT22;2922;53.482;10.006;2023-08-01T04:34:59;16.50;99.90
5792;DHT22;2922;53.482;10.006;2023-08-01T04:37:24;16.60;99.90
5792;DHT22;2922;53.482;10.006;2023-08-01T04:39:51;16.60;99.90
5792;DHT22;2922;53.482;10.006;2023-08-01T04:42:16;16.70;99.90
5792;DHT22;2922;53.482;10.006;2023-08-01T04:44:42;16.60;99.90
5792;DHT22;2922;53.482;10.006;2023-08-01T04:47:07;16.70;99.90
5792;DHT22;2922;53.482;10.006;2023-08-01T04:49:33;16.60;99.90
5792;DHT22;2922;53.482;10.006;2023-08-01T04:51:59;16.60;99.90
5792;DHT22;2922;53.482;10.006;2023-08-01T04:54:25;16.70;99.90
5792;DHT22;2922;53.482;10.006;2023-08-01T04:56:51;16.60;99.90
5792;DHT22;2922;53.482;10.006;2023-08-01T04:59:16;16.60;99.90
5792;DHT22;2922;53.482;10.006;2023-08-01T05:01:42;16.60;99.90
5792;DHT22;2922;53.482;10.006;2023-08-01T05:04:07;16.60;99.90
5792;DHT22;2922;53.482;10.006;2023-08-01T05:06:33;16.70;99.90
5792;DHT22;2922;53.482;10.006;2023-08-01T05:09:00;16.60;99.90
5792;DHT22;2922;53.482;10.006;2023-08-01T05:11:26;16.60;99.90
5792;DHT22;2922;53.482;10.006;2023-08-01T05:13:51;16.70;99.90
5792;DHT22;2922;53.482;10.006;2023-08-01T05:16:17;16.70;99.90
5792;DHT22;2922;53.482;10.006;2023-08-01T05:18:42;16.70;99.90
5792;DHT22;2922;53.482;10.006;2023-08-01T05:21:08;16.80;99.90
5792;DHT22;2922;53.482;10.006;2023-08-01T05:23:33;16.80;99.90
5792;DHT22;2922;53.482;10.006;2023-08-01T05:25:59;16.70;99.90
5792;DHT22;2922;53.482;10.006;2023-08-01T05:28:25;16.70;99.90
5792;DHT22;2922;53.482;10.006;2023-08-01T05:30:50;16.70;99.90
5792;DHT22;2922;53.482;10.006;2023-08-01T05:33:16;16.70;99.90
5792;DHT22;2922;53.482;10.006;2023-08-01T05:35:41;16.60;99.90
5792;DHT22;2922;53.482;10.006;2023-08-01T05:38:07;16.60;99.90
5792;DHT22;2922;53.482;10.006;2023-08-01T05:40:32;16.60;99.90
5792;DHT22;2922;53.482;10.006;2023-08-01T05:42:58;16.70;99.90
5792;DHT22;2922;53.482;10.006;2023-08-01T05:45:24;16.60;99.90
5792;DHT22;2922;53.482;10.006;2023-08-01T05:47:50;16.60;99.90
5792;DHT22;2922;53.482;10.006;2023-08-01T05:50:15;16.60;99.90
5792;DHT22;2922;53.482;10.006;2023-08-01T05:52:41;16.70;99.90
5792;DHT22;2922;53.482;10.006;2023-08-01T05:55:17;16.70;99.90
5792;DHT22;2922;53.482;10.006;2023-08-01T05:57:42;16.80;99.90
5792;DHT22;2922;53.482;10.006;2023-08-01T06:00:08;16.80;99.90
5792;DHT22;2922;53.482;10.006;2023-08-01T06:02:34;16.70;99.90
5792;DHT22;2922;53.482;10.006;2023-08-01T06:05:00;16.70;99.90
5792;DHT22;2922;53.482;10.006;2023-08-01T06:07:28;16.70;99.90
5792;DHT22;2922;53.482;10.006;2023-08-01T06:09:53;16.70;99.90
5792;DHT22;2922;53.482;10.006;2023-08-01T07:37:57;17.40;99.90
5792;DHT22;2922;53.482;10.006;2023-08-01T07:40:22;17.40;99.90
5792;DHT22;2922;53.482;10.006;2023-08-01T07:42:48;17.50;99.90
5792;DHT22;2922;53.482;10.006;2023-08-01T07:45:15;17.60;99.90
5792;DHT22;2922;53.482;10.006;2023-08-01T07:47:41;17.70;99.90
5792;DHT22;2922;53.482;10.006;2023-08-01T07:50:06;17.60;99.90
5792;DHT22;2922;53.482;10.006;2023-08-01T07:52:32;17.60;99.90
5792;DHT22;2922;53.482;10.006;2023-08-01T07:54:58;17.50;99.90
5792;DHT22;2922;53.482;10.006;2023-08-01T07:57:23;17.40;99.90
5792;DHT22;2922;53.482;10.006;2023-08-01T07:59:49;17.60;99.90
5792;DHT22;2922;53.482;10.006;2023-08-01T08:02:15;17.80;99.90
5792;DHT22;2922;53.482;10.006;2023-08-01T08:04:40;18.20;99.90
5792;DHT22;2922;53.482;10.006;2023-08-01T08:07:06;18.60;99.90
5792;DHT22;2922;53.482;10.006;2023-08-01T08:09:31;18.90;99.90
5792;DHT22;2922;53.482;10.006;2023-08-01T08:11:57;19.20;99.90
5792;DHT22;2922;53.482;10.006;2023-08-01T08:14:23;19.30;99.90
5792;DHT22;2922;53.482;10.006;2023-08-01T08:16:49;19.00;99.90
5792;DHT22;2922;53.482;10.006;2023-08-01T08:19:15;18.80;99.90
5792;DHT22;2922;53.482;10.006;2023-08-01T08:21:40;18.70;99.90
5792;DHT22;2922;53.482;10.006;2023-08-01T08:24:06;18.60;99.90
5792;DHT22;2922;53.482;10.006;2023-08-01T08:26:32;18.60;99.90
5792;DHT22;2922;53.482;10.006;2023-08-01T08:28:59;18.50;99.90
5792;DHT22;2922;53.482;10.006;2023-08-01T08:31:25;18.60;99.90
5792;DHT22;2922;53.482;10.006;2023-08-01T08:33:50;18.80;99.90
5792;DHT22;2922;53.482;10.006;2023-08-01T08:36:16;18.80;99.90
5792;DHT22;2922;53.482;10.006;2023-08-01T08:38:41;18.90;99.90
5792;DHT22;2922;53.482;10.006;2023-08-01T08:41:13;19.00;99.90
5792;DHT22;2922;53.482;10.006;2023-08-01T08:43:39;19.10;99.90
5792;DHT22;2922;53.482;10.006;2023-08-01T08:46:08;19.10;99.90
5792;DHT22;2922;53.482;10.006;2023-08-01T08:48:35;19.20;99.90
5792;DHT22;2922;53.482;10.006;2023-08-01T08:51:02;19.30;99.90
5792;DHT22;2922;53.482;10.006;2023-08-01T08:53:29;19.50;99.90
5792;DHT22;2922;53.482;10.006;2023-08-01T08:55:55;19.80;99.90
5792;DHT22;2922;53.482;10.006;2023-08-01T08:58:22;19.90;99.90
5792;DHT22;2922;53.482;10.006;2023-08-01T09:00:48;20.00;99.90
5792;DHT22;2922;53.482;10.006;2023-08-01T09:03:15;20.10;99.90
5792;DHT22;2922;53.482;10.006;2023-08-01T09:05:52;20.10;99.90
5792;DHT22;2922;53.482;10.006;2023-08-01T09:08:21;20.00;99.90
5792;DHT22;2922;53.482;10.006;2023-08-01T09:10:47;19.90;99.90
5792;DHT22;2922;53.482;10.006;2023-08-01T09:13:14;19.80;99.90
5792;DHT22;2922;53.482;10.006;2023-08-01T09:15:41;19.50;99.90
5792;DHT22;2922;53.482;10.006;2023-08-01T09:18:08;19.40;99.90
5792;DHT22;2922;53.482;10.006;2023-08-01T09:20:47;19.40;99.90
5792;DHT22;2922;53.482;10.006;2023-08-01T09:23:13;19.20;99.90
5792;DHT22;2922;53.482;10.006;2023-08-01T09:25:39;19.10;99.90
5792;DHT22;2922;53.482;10.006;2023-08-01T09:28:16;18.90;99.90
5792;DHT22;2922;53.482;10.006;2023-08-01T09:30:46;18.80;99.90
5792;DHT22;2922;53.482;10.006;2023-08-01T09:33:12;18.80;99.90
5792;DHT22;2922;53.482;10.006;2023-08-01T09:35:41;18.80;99.90
5792;DHT22;2922;53.482;10.006;2023-08-01T09:38:06;18.80;99.90
5792;DHT22;2922;53.482;10.006;2023-08-01T09:40:39;18.90;99.90
5792;DHT22;2922;53.482;10.006;2023-08-01T09:43:04;19.20;99.90
5792;DHT22;2922;53.482;10.006;2023-08-01T09:45:30;19.40;99.90
5792;DHT22;2922;53.482;10.006;2023-08-01T09:47:56;19.80;99.90
5792;DHT22;2922;53.482;10.006;2023-08-01T09:50:23;20.10;99.90
5792;DHT22;2922;53.482;10.006;2023-08-01T09:52:48;20.50;99.90
5792;DHT22;2922;53.482;10.006;2023-08-01T09:55:31;20.60;99.90
5792;DHT22;2922;53.482;10.006;2023-08-01T09:57:58;20.60;99.90
5792;DHT22;2922;53.482;10.006;2023-08-01T10:00:26;20.70;99.90
5792;DHT22;2922;53.482;10.006;2023-08-01T10:02:53;20.60;99.90
5792;DHT22;2922;53.482;10.006;2023-08-01T10:05:20;20.40;99.90
5792;DHT22;2922;53.482;10.006;2023-08-01T10:07:48;20.40;99.90
5792;DHT22;2922;53.482;10.006;2023-08-01T10:10:15;20.40;99.90
5792;DHT22;2922;53.482;10.006;2023-08-01T10:12:45;20.50;99.90
5792;DHT22;2922;53.482;10.006;2023-08-01T10:15:11;20.90;99.90
5792;DHT22;2922;53.482;10.006;2023-08-01T10:17:37;21.30;99.90
5792;DHT22;2922;53.482;10.006;2023-08-01T10:20:03;21.70;99.90
5792;DHT22;2922;53.482;10.006;2023-08-01T10:22:29;21.70;99.90
5792;DHT22;2922;53.482;10.006;2023-08-01T10:24:55;21.80;99.90
5792;DHT22;2922;53.482;10.006;2023-08-01T10:27:23;22.20;99.90
5792;DHT22;2922;53.482;10.006;2023-08-01T10:30:02;22.40;99.90
5792;DHT22;2922;53.482;10.006;2023-08-01T10:55:01;22.70;99.90
5792;DHT22;2922;53.482;10.006;2023-08-01T11:44:02;17.60;99.90
5792;DHT22;2922;53.482;10.006;2023-08-01T11:46:33;17.50;99.90
5792;DHT22;2922;53.482;10.006;2023-08-01T11:48:59;17.60;99.90
5792;DHT22;2922;53.482;10.006;2023-08-01T11:51:26;17.60;99.90
5792;DHT22;2922;53.482;10.006;2023-08-01T11:53:59;17.70;99.90
5792;DHT22;2922;53.482;10.006;2023-08-01T11:56:25;17.90;99.90
5792;DHT22;2922;53.482;10.006;2023-08-01T11:58:51;18.20;99.90
5792;DHT22;2922;53.482;10.006;2023-08-01T12:01:17;18.40;99.90
5792;DHT22;2922;53.482;10.006;2023-08-01T12:03:54;18.70;99.90
5792;DHT22;2922;53.482;10.006;2023-08-01T12:06:22;19.20;99.90
5792;DHT22;2922;53.482;10.006;2023-08-01T12:08:51;19.60;99.90
5792;DHT22;2922;53.482;10.006;2023-08-01T12:11:23;19.60;99.90
5792;DHT22;2922;53.482;10.006;2023-08-01T12:14:13;19.80;99.90
5792;DHT22;2922;53.482;10.006;2023-08-01T12:16:43;19.80;99.90
5792;DHT22;2922;53.482;10.006;2023-08-01T12:19:10;19.60;99.90
5792;DHT22;2922;53.482;10.006;2023-08-01T12:21:36;19.40;99.90
5792;DHT22;2922;53.482;10.006;2023-08-01T12:24:02;19.10;99.90
5792;DHT22;2922;53.482;10.006;2023-08-01T12:26:28;19.00;99.90
5792;DHT22;2922;53.482;10.006;2023-08-01T12:28:54;19.00;99.90
5792;DHT22;2922;53.482;10.006;2023-08-01T12:31:21;18.90;99.90
5792;DHT22;2922;53.482;10.006;2023-08-01T12:33:47;19.00;99.90
5792;DHT22;2922;53.482;10.006;2023-08-01T12:36:14;18.70;99.90
5792;DHT22;2922;53.482;10.006;2023-08-01T12:38:40;18.20;99.90
5792;DHT22;2922;53.482;10.006;2023-08-01T12:41:06;18.00;99.90
5792;DHT22;2922;53.482;10.006;2023-08-01T12:43:32;17.90;99.90
5792;DHT22;2922;53.482;10.006;2023-08-01T12:45:57;17.70;99.90
5792;DHT22;2922;53.482;10.006;2023-08-01T12:48:27;17.60;99.90
5792;DHT22;2922;53.482;10.006;2023-08-01T12:50:53;17.60;99.90
5792;DHT22;2922;53.482;10.006;2023-08-01T12:53:19;17.60;99.90
5792;DHT22;2922;53.482;10.006;2023-08-01T12:55:46;17.80;99.90
5792;DHT22;2922;53.482;10.006;2023-08-01T12:58:12;18.10;99.90
5792;DHT22;2922;53.482;10.006;2023-08-01T13:00:39;18.10;99.90
5792;DHT22;2922;53.482;10.006;2023-08-01T13:03:05;18.40;99.90
5792;DHT22;2922;53.482;10.006;2023-08-01T13:05:37;18.60;99.90
5792;DHT22;2922;53.482;10.006;2023-08-01T13:08:03;19.10;99.90
5792;DHT22;2922;53.482;10.006;2023-08-01T13:10:37;19.60;99.90
5792;DHT22;2922;53.482;10.006;2023-08-01T13:13:03;19.90;99.90
5792;DHT22;2922;53.482;10.006;2023-08-01T13:15:29;20.10;99.90
5792;DHT22;2922;53.482;10.006;2023-08-01T13:17:55;20.10;99.90
5792;DHT22;2922;53.482;10.006;2023-08-01T13:20:21;20.10;99.90
5792;DHT22;2922;53.482;10.006;2023-08-01T13:22:49;20.20;99.90
5792;DHT22;2922;53.482;10.006;2023-08-01T13:25:15;20.70;99.90
5792;DHT22;2922;53.482;10.006;2023-08-01T13:27:41;21.00;99.90
5792;DHT22;2922;53.482;10.006;2023-08-01T13:30:07;21.00;99.90
5792;DHT22;2922;53.482;10.006;2023-08-01T13:32:33;20.80;99.90
5792;DHT22;2922;53.482;10.006;2023-08-01T13:34:59;20.60;99.90
5792;DHT22;2922;53.482;10.006;2023-08-01T13:37:25;20.30;99.90
5792;DHT22;2922;53.482;10.006;2023-08-01T13:39:51;20.20;99.90
5792;DHT22;2922;53.482;10.006;2023-08-01T13:42:17;20.10;99.90
5792;DHT22;2922;53.482;10.006;2023-08-01T13:44:42;20.10;99.90
5792;DHT22;2922;53.482;10.006;2023-08-01T13:47:08;20.00;99.90
5792;DHT22;2922;53.482;10.006;2023-08-01T13:49:34;19.90;99.90
5792;DHT22;2922;53.482;10.006;2023-08-01T13:52:00;19.90;99.90
5792;DHT22;2922;53.482;10.006;2023-08-01T13:54:26;20.00;99.90
5792;DHT22;2922;53.482;10.006;2023-08-01T13:56:51;20.10;99.90
5792;DHT22;2922;53.482;10.006;2023-08-01T13:59:18;20.30;99.90
5792;DHT22;2922;53.482;10.006;2023-08-01T14:01:45;20.30;99.90
5792;DHT22;2922;53.482;10.006;2023-08-01T14:04:10;20.40;99.90
5792;DHT22;2922;53.482;10.006;2023-08-01T14:06:39;20.40;99.90
5792;DHT22;2922;53.482;10.006;2023-08-01T14:09:05;20.30;99.90
5792;DHT22;2922;53.482;10.006;2023-08-01T14:11:30;20.00;99.90
5792;DHT22;2922;53.482;10.006;2023-08-01T14:13:56;19.80;99.90
5792;DHT22;2922;53.482;10.006;2023-08-01T14:16:22;19.90;99.90
5792;DHT22;2922;53.482;10.006;2023-08-01T14:18:48;19.90;99.90
5792;DHT22;2922;53.482;10.006;2023-08-01T14:21:14;19.90;99.90
5792;DHT22;2922;53.482;10.006;2023-08-01T14:23:39;19.80;99.90
5792;DHT22;2922;53.482;10.006;2023-08-01T14:26:07;19.80;99.90
5792;DHT22;2922;53.482;10.006;2023-08-01T14:28:32;19.50;99.90
5792;DHT22;2922;53.482;10.006;2023-08-01T14:31:00;19.40;99.90
5792;DHT22;2922;53.482;10.006;2023-08-01T14:33:27;18.90;99.90
5792;DHT22;2922;53.482;10.006;2023-08-01T14:35:53;18.70;99.90
5792;DHT22;2922;53.482;10.006;2023-08-01T14:38:19;18.60;99.90
5792;DHT22;2922;53.482;10.006;2023-08-01T14:40:44;18.60;99.90
5792;DHT22;2922;53.482;10.006;2023-08-01T14:43:10;18.70;99.90
5792;DHT22;2922;53.482;10.006;2023-08-01T14:45:39;18.90;99.90
5792;DHT22;2922;53.482;10.006;2023-08-01T14:48:06;19.20;99.90
5792;DHT22;2922;53.482;10.006;2023-08-01T14:50:32;19.20;99.90
5792;DHT22;2922;53.482;10.006;2023-08-01T14:52:57;19.30;99.90
5792;DHT22;2922;53.482;10.006;2023-08-01T14:55:23;19.30;99.90
5792;DHT22;2922;53.482;10.006;2023-08-01T14:57:49;19.20;99.90
5792;DHT22;2922;53.482;10.006;2023-08-01T15:00:15;19.20;99.90
5792;DHT22;2922;53.482;10.006;2023-08-01T15:02:41;19.30;99.90
5792;DHT22;2922;53.482;10.006;2023-08-01T15:05:07;19.30;99.90
5792;DHT22;2922;53.482;10.006;2023-08-01T15:07:33;19.40;99.90
5792;DHT22;2922;53.482;10.006;2023-08-01T15:09:58;19.50;99.90
5792;DHT22;2922;53.482;10.006;2023-08-01T15:12:24;19.40;99.90
5792;DHT22;2922;53.482;10.006;2023-08-01T15:14:52;19.50;99.90
5792;DHT22;2922;53.482;10.006;2023-08-01T15:17:17;19.50;99.90
5792;DHT22;2922;53.482;10.006;2023-08-01T15:19:43;19.40;99.90
5792;DHT22;2922;53.482;10.006;2023-08-01T15:22:16;19.50;99.90
5792;DHT22;2922;53.482;10.006;2023-08-01T15:24:42;19.60;99.90
5792;DHT22;2922;53.482;10.006;2023-08-01T15:27:09;19.70;99.90
5792;DHT22;2922;53.482;10.006;2023-08-01T15:29:35;19.90;99.90
5792;DHT22;2922;53.482;10.006;2023-08-01T15:32:00;19.80;99.90
5792;DHT22;2922;53.482;10.006;2023-08-01T15:34:26;19.70;99.90
5792;DHT22;2922;53.482;10.006;2023-08-01T15:36:52;19.60;99.90
5792;DHT22;2922;53.482;10.006;2023-08-01T15:39:18;19.50;99.90
5792;DHT22;2922;53.482;10.006;2023-08-01T15:41:45;19.50;99.90
5792;DHT22;2922;53.482;10.006;2023-08-01T15:44:11;19.40;99.90
5792;DHT22;2922;53.482;10.006;2023-08-01T15:46:36;19.20;99.90
5792;DHT22;2922;53.482;10.006;2023-08-01T15:49:02;19.20;99.90
5792;DHT22;2922;53.482;10.006;2023-08-01T15:51:30;19.00;99.90
5792;DHT22;2922;53.482;10.006;2023-08-01T15:53:55;18.70;99.90
5792;DHT22;2922;53.482;10.006;2023-08-01T15:56:21;18.40;99.90
5792;DHT22;2922;53.482;10.006;2023-08-01T15:58:46;18.30;99.90
5792;DHT22;2922;53.482;10.006;2023-08-01T16:01:12;18.30;99.90
5792;DHT22;2922;53.482;10.006;2023-08-01T16:03:39;18.30;99.90
5792;DHT22;2922;53.482;10.006;2023-08-01T16:06:05;18.30;99.90
5792;DHT22;2922;53.482;10.006;2023-08-01T16:08:31;18.40;99.90
5792;DHT22;2922;53.482;10.006;2023-08-01T16:10:57;18.40;99.90
5792;DHT22;2922;53.482;10.006;2023-08-01T16:13:22;18.60;99.90
5792;DHT22;2922;53.482;10.006;2023-08-01T16:15:48;18.90;99.90
5792;DHT22;2922;53.482;10.006;2023-08-01T16:18:17;19.20;99.90
5792;DHT22;2922;53.482;10.006;2023-08-01T16:20:44;19.30;99.90
5792;DHT22;2922;53.482;10.006;2023-08-01T16:23:10;19.20;99.90
5792;DHT22;2922;53.482;10.006;2023-08-01T16:25:36;19.10;99.90
5792;DHT22;2922;53.482;10.006;2023-08-01T16:28:02;19.00;99.90
5792;DHT22;2922;53.482;10.006;2023-08-01T16:30:28;18.90;99.90
5792;DHT22;2922;53.482;10.006;2023-08-01T16:32:54;18.90;99.90
5792;DHT22;2922;53.482;10.006;2023-08-01T16:35:20;18.90;99.90
5792;DHT22;2922;53.482;10.006;2023-08-01T16:37:45;18.80;99.90
5792;DHT22;2922;53.482;10.006;2023-08-01T16:40:13;18.90;99.90
5792;DHT22;2922;53.482;10.006;2023-08-01T16:46:40;18.70;99.90
5792;DHT22;2922;53.482;10.006;2023-08-01T16:49:06;18.70;99.90
5792;DHT22;2922;53.482;10.006;2023-08-01T16:51:32;18.80;99.90
5792;DHT22;2922;53.482;10.006;2023-08-01T16:53:57;18.80;99.90
5792;DHT22;2922;53.482;10.006;2023-08-01T16:56:23;18.90;99.90
5792;DHT22;2922;53.482;10.006;2023-08-01T16:58:49;19.00;99.90
5792;DHT22;2922;53.482;10.006;2023-08-01T17:01:14;19.20;99.90
5792;DHT22;2922;53.482;10.006;2023-08-01T17:03:40;19.20;99.90
5792;DHT22;2922;53.482;10.006;2023-08-01T17:06:07;19.20;99.90
5792;DHT22;2922;53.482;10.006;2023-08-01T17:08:33;19.30;99.90
5792;DHT22;2922;53.482;10.006;2023-08-01T17:11:07;19.30;99.90
5792;DHT22;2922;53.482;10.006;2023-08-01T17:13:34;19.40;99.90
5792;DHT22;2922;53.482;10.006;2023-08-01T17:16:00;19.20;99.90
5792;DHT22;2922;53.482;10.006;2023-08-01T17:18:25;19.00;99.90
5792;DHT22;2922;53.482;10.006;2023-08-01T17:20:51;18.80;99.90
5792;DHT22;2922;53.482;10.006;2023-08-01T17:23:16;18.80;99.90
5792;DHT22;2922;53.482;10.006;2023-08-01T17:25:42;18.70;99.90
5792;DHT22;2922;53.482;10.006;2023-08-01T17:28:07;18.60;99.90
5792;DHT22;2922;53.482;10.006;2023-08-01T17:30:33;18.50;99.90
5792;DHT22;2922;53.482;10.006;2023-08-01T17:32:59;18.40;99.90
5792;DHT22;2922;53.482;10.006;2023-08-01T17:35:24;18.30;99.90
5792;DHT22;2922;53.482;10.006;2023-08-01T17:37:51;18.20;99.90
5792;DHT22;2922;53.482;10.006;2023-08-01T17:40:17;18.10;99.90
5792;DHT22;2922;53.482;10.006;2023-08-01T17:42:42;18.00;99.90
5792;DHT22;2922;53.482;10.006;2023-08-01T17:45:08;18.00;99.90
5792;DHT22;2922;53.482;10.006;2023-08-01T17:50:53;17.70;99.90
5792;DHT22;2922;53.482;10.006;2023-08-01T17:53:18;17.60;99.90
5792;DHT22;2922;53.482;10.006;2023-08-01T17:55:44;17.60;99.90
5792;DHT22;2922;53.482;10.006;2023-08-01T17:58:10;17.70;99.90
5792;DHT22;2922;53.482;10.006;2023-08-01T18:00:35;17.70;99.90
5792;DHT22;2922;53.482;10.006;2023-08-01T18:03:01;17.80;99.90
5792;DHT22;2922;53.482;10.006;2023-08-01T18:05:26;17.80;99.90
5792;DHT22;2922;53.482;10.006;2023-08-01T18:07:52;17.80;99.90
5792;DHT22;2922;53.482;10.006;2023-08-01T18:10:18;17.90;99.90
5792;DHT22;2922;53.482;10.006;2023-08-01T18:12:46;18.00;99.90
5792;DHT22;2922;53.482;10.006;2023-08-01T18:15:13;17.90;99.90
5792;DHT22;2922;53.482;10.006;2023-08-01T18:17:38;17.90;99.90
5792;DHT22;2922;53.482;10.006;2023-08-01T18:20:04;17.90;99.90
5792;DHT22;2922;53.482;10.006;2023-08-01T18:22:30;17.80;99.90